Ana Sayfa
METAR-TAF:

METAR-TAF

Havaalanları :

South Jersey Regional Airport

Mount Holly, New Jersey, Amerika Birleşik Devletleri

Enlem: 39-56-26N, Boylam: 074-50-28W, yükseklik: 16 m

Güncel hava durumu gözlemi

Rapor saat 23:54 UTC de 41 dakika önce yapıldı.
Rüzgar güneydoğudan 3 kt
Sıcaklık -1°C
Nem 59%
Basınç 1040 hPa
Görüş mesafesi: 16.1 km
Açık gökyüzü

METAR: KVAY 122354Z AUTO 13003KT 10SM CLR M01/M08 A3070 RMK AO2 SLP395 T10111078 10033 21017 53004

Saat: 19:35 (00:35 UTC)


TAF: eksik

4.000'den fazla havaalanı için hava durumu gözlemleri ve tahminleri (METAR ve TAF raporları).

Kullanılabilir istasyonlar harita üzerinde sarı ve kırmızı noktalarla gösterilir.

İstasyonun adını görmek için fareyi noktanın üzerinde gezdirin.

Sonrasında hava gözlem ve tahminlerini görmek için tıklayın.

Haritayı değiştirmek için: yaklaştırmak için siyah artı işaretli yeşil düğmeye ve uzaklaştırmak için de eksi işaretli düğmeye hızla tıklayın; bitişik haritalar için yeşil okları kullanın.


METAR-TAF: